sensor_id;sensor_type;location;lat;lon;timestamp;P1;durP1;ratioP1;P2;durP2;ratioP2
7340;SDS011;6870;50.944;6.932;2023-02-01T00:01:17;3.50;;;1.63;;
7340;SDS011;6870;50.944;6.932;2023-02-01T00:03:47;5.37;;;2.13;;
7340;SDS011;6870;50.944;6.932;2023-02-01T00:06:15;4.57;;;2.20;;
7340;SDS011;6870;50.944;6.932;2023-02-01T00:08:43;3.33;;;1.80;;
7340;SDS011;6870;50.944;6.932;2023-02-01T00:11:11;3.80;;;1.80;;
7340;SDS011;6870;50.944;6.932;2023-02-01T00:13:40;2.90;;;1.67;;
7340;SDS011;6870;50.944;6.932;2023-02-01T00:16:09;3.00;;;1.77;;
7340;SDS011;6870;50.944;6.932;2023-02-01T00:18:42;3.80;;;2.00;;
7340;SDS011;6870;50.944;6.932;2023-02-01T00:21:12;2.00;;;1.60;;
7340;SDS011;6870;50.944;6.932;2023-02-01T00:23:42;5.10;;;2.20;;
7340;SDS011;6870;50.944;6.932;2023-02-01T00:26:12;3.07;;;1.63;;
7340;SDS011;6870;50.944;6.932;2023-02-01T00:28:44;3.13;;;1.50;;
7340;SDS011;6870;50.944;6.932;2023-02-01T00:31:12;3.83;;;2.10;;
7340;SDS011;6870;50.944;6.932;2023-02-01T00:33:41;4.40;;;1.53;;
7340;SDS011;6870;50.944;6.932;2023-02-01T00:36:09;3.50;;;1.43;;
7340;SDS011;6870;50.944;6.932;2023-02-01T00:38:39;2.73;;;2.00;;
7340;SDS011;6870;50.944;6.932;2023-02-01T00:41:08;3.60;;;2.03;;
7340;SDS011;6870;50.944;6.932;2023-02-01T00:43:40;2.67;;;1.60;;
7340;SDS011;6870;50.944;6.932;2023-02-01T00:46:08;3.77;;;1.70;;
7340;SDS011;6870;50.944;6.932;2023-02-01T00:48:38;4.20;;;2.20;;
7340;SDS011;6870;50.944;6.932;2023-02-01T00:51:07;7.37;;;1.70;;
7340;SDS011;6870;50.944;6.932;2023-02-01T00:53:39;4.40;;;1.80;;
7340;SDS011;6870;50.944;6.932;2023-02-01T00:56:07;3.83;;;1.80;;
7340;SDS011;6870;50.944;6.932;2023-02-01T00:58:36;3.03;;;1.53;;
7340;SDS011;6870;50.944;6.932;2023-02-01T01:01:05;3.90;;;1.77;;
7340;SDS011;6870;50.944;6.932;2023-02-01T01:03:36;3.83;;;2.00;;
7340;SDS011;6870;50.944;6.932;2023-02-01T01:06:07;2.77;;;1.90;;
7340;SDS011;6870;50.944;6.932;2023-02-01T01:08:38;6.27;;;1.77;;
7340;SDS011;6870;50.944;6.932;2023-02-01T01:11:07;6.80;;;1.90;;
7340;SDS011;6870;50.944;6.932;2023-02-01T01:13:38;1.90;;;1.70;;
7340;SDS011;6870;50.944;6.932;2023-02-01T01:16:07;4.13;;;1.90;;
7340;SDS011;6870;50.944;6.932;2023-02-01T01:18:37;5.37;;;1.80;;
7340;SDS011;6870;50.944;6.932;2023-02-01T01:21:06;3.43;;;1.63;;
7340;SDS011;6870;50.944;6.932;2023-02-01T01:23:35;2.30;;;1.53;;
7340;SDS011;6870;50.944;6.932;2023-02-01T01:26:08;1.87;;;1.20;;
7340;SDS011;6870;50.944;6.932;2023-02-01T01:28:39;2.60;;;1.80;;
7340;SDS011;6870;50.944;6.932;2023-02-01T01:31:07;3.10;;;1.53;;
7340;SDS011;6870;50.944;6.932;2023-02-01T01:33:36;1.73;;;1.37;;
7340;SDS011;6870;50.944;6.932;2023-02-01T01:36:04;3.47;;;1.90;;
7340;SDS011;6870;50.944;6.932;2023-02-01T01:38:33;2.50;;;1.40;;
7340;SDS011;6870;50.944;6.932;2023-02-01T01:41:02;4.60;;;1.50;;
7340;SDS011;6870;50.944;6.932;2023-02-01T01:43:48;2.93;;;1.60;;
7340;SDS011;6870;50.944;6.932;2023-02-01T01:46:23;3.33;;;2.00;;
7340;SDS011;6870;50.944;6.932;2023-02-01T01:48:56;2.17;;;1.63;;
7340;SDS011;6870;50.944;6.932;2023-02-01T01:51:32;2.10;;;1.70;;
7340;SDS011;6870;50.944;6.932;2023-02-01T01:54:06;2.07;;;1.40;;
7340;SDS011;6870;50.944;6.932;2023-02-01T01:56:39;4.17;;;2.03;;
7340;SDS011;6870;50.944;6.932;2023-02-01T01:59:10;4.23;;;2.03;;
7340;SDS011;6870;50.944;6.932;2023-02-01T02:01:39;2.63;;;1.30;;
7340;SDS011;6870;50.944;6.932;2023-02-01T02:04:08;2.40;;;1.80;;
7340;SDS011;6870;50.944;6.932;2023-02-01T02:06:40;2.60;;;1.47;;
7340;SDS011;6870;50.944;6.932;2023-02-01T02:09:14;1.97;;;1.30;;
7340;SDS011;6870;50.944;6.932;2023-02-01T02:11:42;2.73;;;1.40;;
7340;SDS011;6870;50.944;6.932;2023-02-01T02:14:12;2.23;;;1.70;;
7340;SDS011;6870;50.944;6.932;2023-02-01T02:16:49;4.00;;;1.40;;
7340;SDS011;6870;50.944;6.932;2023-02-01T02:19:52;1.73;;;1.20;;
7340;SDS011;6870;50.944;6.932;2023-02-01T02:23:03;3.17;;;1.57;;
7340;SDS011;6870;50.944;6.932;2023-02-01T02:29:20;1.87;;;1.30;;
7340;SDS011;6870;50.944;6.932;2023-02-01T02:32:12;3.17;;;1.40;;
7340;SDS011;6870;50.944;6.932;2023-02-01T02:35:18;1.80;;;1.17;;
7340;SDS011;6870;50.944;6.932;2023-02-01T02:37:55;3.50;;;1.27;;
7340;SDS011;6870;50.944;6.932;2023-02-01T02:40:39;3.57;;;1.70;;
7340;SDS011;6870;50.944;6.932;2023-02-01T02:43:18;2.60;;;1.53;;
7340;SDS011;6870;50.944;6.932;2023-02-01T02:46:09;1.80;;;1.10;;
7340;SDS011;6870;50.944;6.932;2023-02-01T02:49:04;3.10;;;1.87;;
7340;SDS011;6870;50.944;6.932;2023-02-01T02:51:42;2.70;;;1.50;;
7340;SDS011;6870;50.944;6.932;2023-02-01T02:54:34;2.37;;;1.33;;
7340;SDS011;6870;50.944;6.932;2023-02-01T02:57:13;3.67;;;1.70;;
7340;SDS011;6870;50.944;6.932;2023-02-01T03:00:04;2.20;;;1.13;;
7340;SDS011;6870;50.944;6.932;2023-02-01T03:02:54;2.20;;;1.53;;
7340;SDS011;6870;50.944;6.932;2023-02-01T03:05:41;1.80;;;1.10;;
7340;SDS011;6870;50.944;6.932;2023-02-01T03:08:13;2.60;;;1.40;;
7340;SDS011;6870;50.944;6.932;2023-02-01T03:10:45;1.77;;;1.30;;
7340;SDS011;6870;50.944;6.932;2023-02-01T03:13:22;2.03;;;1.20;;
7340;SDS011;6870;50.944;6.932;2023-02-01T03:16:01;1.80;;;1.23;;
7340;SDS011;6870;50.944;6.932;2023-02-01T03:18:41;2.80;;;1.27;;
7340;SDS011;6870;50.944;6.932;2023-02-01T03:21:17;5.87;;;1.50;;
7340;SDS011;6870;50.944;6.932;2023-02-01T03:23:51;2.83;;;1.10;;
7340;SDS011;6870;50.944;6.932;2023-02-01T03:26:23;2.60;;;1.10;;
7340;SDS011;6870;50.944;6.932;2023-02-01T03:28:55;4.63;;;1.73;;
7340;SDS011;6870;50.944;6.932;2023-02-01T03:31:35;1.80;;;1.37;;
7340;SDS011;6870;50.944;6.932;2023-02-01T03:34:03;2.90;;;1.43;;
7340;SDS011;6870;50.944;6.932;2023-02-01T03:36:34;2.20;;;2.00;;
7340;SDS011;6870;50.944;6.932;2023-02-01T03:39:09;4.97;;;1.50;;
7340;SDS011;6870;50.944;6.932;2023-02-01T03:41:43;1.70;;;1.30;;
7340;SDS011;6870;50.944;6.932;2023-02-01T03:44:18;4.73;;;1.57;;
7340;SDS011;6870;50.944;6.932;2023-02-01T03:46:51;1.73;;;1.30;;
7340;SDS011;6870;50.944;6.932;2023-02-01T03:49:23;2.80;;;1.20;;
7340;SDS011;6870;50.944;6.932;2023-02-01T03:51:55;3.30;;;1.77;;
7340;SDS011;6870;50.944;6.932;2023-02-01T03:54:27;3.83;;;1.20;;
7340;SDS011;6870;50.944;6.932;2023-02-01T03:56:57;3.33;;;1.57;;
7340;SDS011;6870;50.944;6.932;2023-02-01T03:59:29;3.00;;;1.57;;
7340;SDS011;6870;50.944;6.932;2023-02-01T04:01:57;3.63;;;1.60;;
7340;SDS011;6870;50.944;6.932;2023-02-01T04:04:25;1.70;;;1.23;;
7340;SDS011;6870;50.944;6.932;2023-02-01T04:06:53;1.80;;;1.20;;
7340;SDS011;6870;50.944;6.932;2023-02-01T04:09:21;2.60;;;1.10;;
7340;SDS011;6870;50.944;6.932;2023-02-01T04:11:50;3.10;;;1.33;;
7340;SDS011;6870;50.944;6.932;2023-02-01T04:14:18;2.60;;;1.30;;
7340;SDS011;6870;50.944;6.932;2023-02-01T04:16:46;3.53;;;1.60;;
7340;SDS011;6870;50.944;6.932;2023-02-01T04:19:14;3.83;;;1.40;;
7340;SDS011;6870;50.944;6.932;2023-02-01T04:21:42;2.53;;;1.57;;
7340;SDS011;6870;50.944;6.932;2023-02-01T04:24:10;1.97;;;1.53;;
7340;SDS011;6870;50.944;6.932;2023-02-01T04:26:38;5.80;;;1.37;;
7340;SDS011;6870;50.944;6.932;2023-02-01T04:29:09;1.90;;;1.30;;
7340;SDS011;6870;50.944;6.932;2023-02-01T04:31:37;3.10;;;0.97;;
7340;SDS011;6870;50.944;6.932;2023-02-01T04:34:06;1.77;;;1.10;;
7340;SDS011;6870;50.944;6.932;2023-02-01T04:36:34;8.10;;;1.30;;
7340;SDS011;6870;50.944;6.932;2023-02-01T04:39:02;2.53;;;1.30;;
7340;SDS011;6870;50.944;6.932;2023-02-01T04:41:30;4.90;;;1.10;;
7340;SDS011;6870;50.944;6.932;2023-02-01T04:43:58;4.20;;;1.30;;
7340;SDS011;6870;50.944;6.932;2023-02-01T04:46:27;3.27;;;1.80;;
7340;SDS011;6870;50.944;6.932;2023-02-01T04:48:56;4.70;;;1.50;;
7340;SDS011;6870;50.944;6.932;2023-02-01T04:51:24;2.23;;;0.93;;
7340;SDS011;6870;50.944;6.932;2023-02-01T04:53:51;2.40;;;1.40;;
7340;SDS011;6870;50.944;6.932;2023-02-01T04:56:21;2.30;;;1.37;;
7340;SDS011;6870;50.944;6.932;2023-02-01T04:58:49;1.50;;;1.30;;
7340;SDS011;6870;50.944;6.932;2023-02-01T05:01:18;1.40;;;1.17;;
7340;SDS011;6870;50.944;6.932;2023-02-01T05:03:48;3.10;;;1.20;;
7340;SDS011;6870;50.944;6.932;2023-02-01T05:06:16;2.70;;;1.03;;
7340;SDS011;6870;50.944;6.932;2023-02-01T05:08:44;2.53;;;1.27;;
7340;SDS011;6870;50.944;6.932;2023-02-01T05:11:12;2.03;;;1.37;;
7340;SDS011;6870;50.944;6.932;2023-02-01T05:13:55;1.57;;;1.20;;
7340;SDS011;6870;50.944;6.932;2023-02-01T05:16:23;2.50;;;1.50;;
7340;SDS011;6870;50.944;6.932;2023-02-01T05:18:52;4.20;;;1.33;;
7340;SDS011;6870;50.944;6.932;2023-02-01T05:21:21;1.50;;;1.03;;
7340;SDS011;6870;50.944;6.932;2023-02-01T05:23:49;5.40;;;1.23;;
7340;SDS011;6870;50.944;6.932;2023-02-01T05:26:34;4.53;;;1.27;;
7340;SDS011;6870;50.944;6.932;2023-02-01T05:29:03;2.90;;;1.13;;
7340;SDS011;6870;50.944;6.932;2023-02-01T05:31:31;2.33;;;1.27;;
7340;SDS011;6870;50.944;6.932;2023-02-01T05:34:01;3.10;;;1.87;;
7340;SDS011;6870;50.944;6.932;2023-02-01T05:36:30;1.90;;;1.23;;
7340;SDS011;6870;50.944;6.932;2023-02-01T05:38:58;3.43;;;1.67;;
7340;SDS011;6870;50.944;6.932;2023-02-01T05:41:26;2.67;;;1.20;;
7340;SDS011;6870;50.944;6.932;2023-02-01T05:43:54;2.37;;;1.43;;
7340;SDS011;6870;50.944;6.932;2023-02-01T05:46:22;5.00;;;1.10;;
7340;SDS011;6870;50.944;6.932;2023-02-01T05:48:51;6.80;;;1.83;;
7340;SDS011;6870;50.944;6.932;2023-02-01T05:51:20;2.50;;;2.00;;
7340;SDS011;6870;50.944;6.932;2023-02-01T05:53:48;4.63;;;1.80;;
7340;SDS011;6870;50.944;6.932;2023-02-01T05:56:16;7.97;;;3.17;;
7340;SDS011;6870;50.944;6.932;2023-02-01T05:58:44;7.13;;;2.30;;
7340;SDS011;6870;50.944;6.932;2023-02-01T06:01:12;4.73;;;1.93;;
7340;SDS011;6870;50.944;6.932;2023-02-01T06:03:40;5.30;;;2.27;;
7340;SDS011;6870;50.944;6.932;2023-02-01T06:06:08;7.67;;;2.30;;
7340;SDS011;6870;50.944;6.932;2023-02-01T06:08:38;6.60;;;2.20;;
7340;SDS011;6870;50.944;6.932;2023-02-01T06:11:07;9.53;;;2.80;;
7340;SDS011;6870;50.944;6.932;2023-02-01T06:13:38;9.80;;;2.80;;
7340;SDS011;6870;50.944;6.932;2023-02-01T06:16:06;5.30;;;2.77;;
7340;SDS011;6870;50.944;6.932;2023-02-01T06:18:35;6.63;;;2.90;;
7340;SDS011;6870;50.944;6.932;2023-02-01T06:21:04;4.73;;;2.73;;
7340;SDS011;6870;50.944;6.932;2023-02-01T06:23:32;3.60;;;2.50;;
7340;SDS011;6870;50.944;6.932;2023-02-01T06:26:02;6.03;;;2.37;;
7340;SDS011;6870;50.944;6.932;2023-02-01T06:28:33;6.60;;;2.83;;
7340;SDS011;6870;50.944;6.932;2023-02-01T06:31:05;4.30;;;2.27;;
7340;SDS011;6870;50.944;6.932;2023-02-01T06:33:34;5.23;;;2.30;;
7340;SDS011;6870;50.944;6.932;2023-02-01T06:36:04;3.73;;;2.10;;
7340;SDS011;6870;50.944;6.932;2023-02-01T06:38:35;6.20;;;2.40;;
7340;SDS011;6870;50.944;6.932;2023-02-01T06:41:04;6.23;;;2.70;;
7340;SDS011;6870;50.944;6.932;2023-02-01T06:43:32;6.17;;;2.03;;
7340;SDS011;6870;50.944;6.932;2023-02-01T06:46:01;5.90;;;2.50;;
7340;SDS011;6870;50.944;6.932;2023-02-01T06:48:33;5.20;;;2.67;;
7340;SDS011;6870;50.944;6.932;2023-02-01T06:51:02;5.53;;;1.97;;
7340;SDS011;6870;50.944;6.932;2023-02-01T06:53:30;3.73;;;1.87;;
7340;SDS011;6870;50.944;6.932;2023-02-01T06:55:59;3.00;;;2.00;;
7340;SDS011;6870;50.944;6.932;2023-02-01T06:58:31;8.73;;;3.27;;
7340;SDS011;6870;50.944;6.932;2023-02-01T07:01:03;4.37;;;2.00;;
7340;SDS011;6870;50.944;6.932;2023-02-01T07:03:33;6.03;;;2.60;;
7340;SDS011;6870;50.944;6.932;2023-02-01T07:06:02;4.60;;;2.53;;
7340;SDS011;6870;50.944;6.932;2023-02-01T07:08:31;4.17;;;2.10;;
7340;SDS011;6870;50.944;6.932;2023-02-01T07:11:02;10.37;;;2.90;;
7340;SDS011;6870;50.944;6.932;2023-02-01T07:13:33;5.33;;;2.10;;
7340;SDS011;6870;50.944;6.932;2023-02-01T07:16:01;4.40;;;2.00;;
7340;SDS011;6870;50.944;6.932;2023-02-01T07:18:32;3.93;;;2.20;;
7340;SDS011;6870;50.944;6.932;2023-02-01T07:21:01;5.70;;;2.40;;
7340;SDS011;6870;50.944;6.932;2023-02-01T07:23:29;4.63;;;2.13;;
7340;SDS011;6870;50.944;6.932;2023-02-01T07:25:57;5.07;;;2.60;;
7340;SDS011;6870;50.944;6.932;2023-02-01T07:28:28;4.20;;;2.30;;
7340;SDS011;6870;50.944;6.932;2023-02-01T07:31:03;3.30;;;1.87;;
7340;SDS011;6870;50.944;6.932;2023-02-01T07:33:32;3.93;;;2.40;;
7340;SDS011;6870;50.944;6.932;2023-02-01T07:36:01;4.70;;;2.50;;
7340;SDS011;6870;50.944;6.932;2023-02-01T07:38:31;5.77;;;2.97;;
7340;SDS011;6870;50.944;6.932;2023-02-01T07:41:00;4.73;;;2.33;;
7340;SDS011;6870;50.944;6.932;2023-02-01T07:43:29;4.50;;;2.27;;
7340;SDS011;6870;50.944;6.932;2023-02-01T07:45:59;3.00;;;2.03;;
7340;SDS011;6870;50.944;6.932;2023-02-01T07:48:29;3.63;;;1.97;;
7340;SDS011;6870;50.944;6.932;2023-02-01T07:50:59;3.97;;;2.00;;
7340;SDS011;6870;50.944;6.932;2023-02-01T07:53:29;6.70;;;2.10;;
7340;SDS011;6870;50.944;6.932;2023-02-01T07:55:59;6.40;;;2.30;;
7340;SDS011;6870;50.944;6.932;2023-02-01T07:58:27;5.00;;;2.47;;
7340;SDS011;6870;50.944;6.932;2023-02-01T08:00:56;3.50;;;2.37;;
7340;SDS011;6870;50.944;6.932;2023-02-01T08:03:42;7.67;;;2.73;;
7340;SDS011;6870;50.944;6.932;2023-02-01T08:06:10;3.70;;;2.00;;
7340;SDS011;6870;50.944;6.932;2023-02-01T08:08:38;2.87;;;1.73;;
7340;SDS011;6870;50.944;6.932;2023-02-01T08:11:06;2.57;;;1.57;;
7340;SDS011;6870;50.944;6.932;2023-02-01T08:13:35;4.40;;;2.40;;
7340;SDS011;6870;50.944;6.932;2023-02-01T08:16:03;3.00;;;1.60;;
7340;SDS011;6870;50.944;6.932;2023-02-01T08:18:35;4.43;;;2.13;;
7340;SDS011;6870;50.944;6.932;2023-02-01T08:21:06;4.70;;;2.40;;
7340;SDS011;6870;50.944;6.932;2023-02-01T08:23:37;2.23;;;1.67;;
7340;SDS011;6870;50.944;6.932;2023-02-01T08:26:08;4.83;;;2.53;;
7340;SDS011;6870;50.944;6.932;2023-02-01T08:28:39;7.43;;;2.30;;
7340;SDS011;6870;50.944;6.932;2023-02-01T08:31:09;5.30;;;2.67;;
7340;SDS011;6870;50.944;6.932;2023-02-01T08:33:41;3.80;;;2.60;;
7340;SDS011;6870;50.944;6.932;2023-02-01T08:36:12;5.17;;;2.50;;
7340;SDS011;6870;50.944;6.932;2023-02-01T08:38:40;2.70;;;2.07;;
7340;SDS011;6870;50.944;6.932;2023-02-01T08:41:09;4.60;;;2.40;;
7340;SDS011;6870;50.944;6.932;2023-02-01T08:43:39;4.57;;;2.70;;
7340;SDS011;6870;50.944;6.932;2023-02-01T08:46:08;5.90;;;2.37;;
7340;SDS011;6870;50.944;6.932;2023-02-01T08:48:37;5.93;;;2.77;;
7340;SDS011;6870;50.944;6.932;2023-02-01T08:51:06;7.93;;;2.53;;
7340;SDS011;6870;50.944;6.932;2023-02-01T08:53:39;7.30;;;3.40;;
7340;SDS011;6870;50.944;6.932;2023-02-01T08:56:09;9.13;;;3.03;;
7340;SDS011;6870;50.944;6.932;2023-02-01T08:58:39;8.20;;;2.40;;
7340;SDS011;6870;50.944;6.932;2023-02-01T09:01:09;9.00;;;3.60;;
7340;SDS011;6870;50.944;6.932;2023-02-01T09:03:39;6.90;;;2.13;;
7340;SDS011;6870;50.944;6.932;2023-02-01T09:06:09;7.30;;;2.97;;
7340;SDS011;6870;50.944;6.932;2023-02-01T09:08:40;6.30;;;2.77;;
7340;SDS011;6870;50.944;6.932;2023-02-01T09:11:11;6.73;;;2.97;;
7340;SDS011;6870;50.944;6.932;2023-02-01T09:13:41;5.67;;;2.50;;
7340;SDS011;6870;50.944;6.932;2023-02-01T09:16:09;5.10;;;2.80;;
7340;SDS011;6870;50.944;6.932;2023-02-01T09:18:38;6.80;;;3.83;;
7340;SDS011;6870;50.944;6.932;2023-02-01T09:21:26;5.67;;;2.90;;
7340;SDS011;6870;50.944;6.932;2023-02-01T09:23:55;5.83;;;3.00;;
7340;SDS011;6870;50.944;6.932;2023-02-01T09:26:23;5.77;;;2.90;;
7340;SDS011;6870;50.944;6.932;2023-02-01T09:28:58;4.93;;;2.20;;
7340;SDS011;6870;50.944;6.932;2023-02-01T09:31:26;10.20;;;3.37;;
7340;SDS011;6870;50.944;6.932;2023-02-01T09:33:54;6.87;;;3.07;;
7340;SDS011;6870;50.944;6.932;2023-02-01T09:36:23;5.30;;;2.60;;
7340;SDS011;6870;50.944;6.932;2023-02-01T09:38:51;5.43;;;2.67;;
7340;SDS011;6870;50.944;6.932;2023-02-01T09:41:24;3.60;;;2.37;;
7340;SDS011;6870;50.944;6.932;2023-02-01T09:44:06;8.40;;;3.40;;
7340;SDS011;6870;50.944;6.932;2023-02-01T09:46:44;6.13;;;2.90;;
7340;SDS011;6870;50.944;6.932;2023-02-01T09:49:14;5.03;;;2.97;;
7340;SDS011;6870;50.944;6.932;2023-02-01T09:51:48;6.50;;;3.57;;
7340;SDS011;6870;50.944;6.932;2023-02-01T09:54:19;7.83;;;2.63;;
7340;SDS011;6870;50.944;6.932;2023-02-01T09:56:53;6.20;;;2.70;;
7340;SDS011;6870;50.944;6.932;2023-02-01T09:59:29;3.73;;;2.60;;
7340;SDS011;6870;50.944;6.932;2023-02-01T10:02:03;5.80;;;3.20;;
7340;SDS011;6870;50.944;6.932;2023-02-01T10:04:39;6.37;;;3.10;;
7340;SDS011;6870;50.944;6.932;2023-02-01T10:07:17;5.57;;;2.70;;
7340;SDS011;6870;50.944;6.932;2023-02-01T10:09:58;4.27;;;2.43;;
7340;SDS011;6870;50.944;6.932;2023-02-01T10:12:43;5.23;;;2.83;;
7340;SDS011;6870;50.944;6.932;2023-02-01T10:15:31;5.50;;;2.93;;
7340;SDS011;6870;50.944;6.932;2023-02-01T10:18:31;4.90;;;2.63;;
7340;SDS011;6870;50.944;6.932;2023-02-01T10:21:15;6.30;;;2.90;;
7340;SDS011;6870;50.944;6.932;2023-02-01T10:24:02;5.63;;;2.83;;
7340;SDS011;6870;50.944;6.932;2023-02-01T10:26:44;4.60;;;3.13;;
7340;SDS011;6870;50.944;6.932;2023-02-01T10:29:19;8.10;;;3.40;;
7340;SDS011;6870;50.944;6.932;2023-02-01T10:31:50;9.60;;;3.63;;
7340;SDS011;6870;50.944;6.932;2023-02-01T10:34:19;3.87;;;2.20;;
7340;SDS011;6870;50.944;6.932;2023-02-01T10:36:53;6.33;;;2.80;;
7340;SDS011;6870;50.944;6.932;2023-02-01T10:39:23;6.20;;;2.77;;
7340;SDS011;6870;50.944;6.932;2023-02-01T10:41:51;5.70;;;3.33;;
7340;SDS011;6870;50.944;6.932;2023-02-01T10:44:21;6.33;;;3.27;;
7340;SDS011;6870;50.944;6.932;2023-02-01T10:46:53;4.70;;;2.70;;
7340;SDS011;6870;50.944;6.932;2023-02-01T10:49:22;7.90;;;3.07;;
7340;SDS011;6870;50.944;6.932;2023-02-01T10:51:59;6.00;;;3.13;;
7340;SDS011;6870;50.944;6.932;2023-02-01T10:54:38;5.87;;;3.30;;
7340;SDS011;6870;50.944;6.932;2023-02-01T10:57:07;4.33;;;2.70;;
7340;SDS011;6870;50.944;6.932;2023-02-01T10:59:37;4.90;;;3.27;;
7340;SDS011;6870;50.944;6.932;2023-02-01T11:02:13;6.00;;;2.90;;
7340;SDS011;6870;50.944;6.932;2023-02-01T11:04:48;4.97;;;3.37;;
7340;SDS011;6870;50.944;6.932;2023-02-01T11:07:17;5.97;;;2.70;;
7340;SDS011;6870;50.944;6.932;2023-02-01T11:09:51;4.53;;;2.93;;
7340;SDS011;6870;50.944;6.932;2023-02-01T11:12:24;3.33;;;2.37;;
7340;SDS011;6870;50.944;6.932;2023-02-01T11:14:59;5.50;;;2.57;;
7340;SDS011;6870;50.944;6.932;2023-02-01T11:17:42;5.27;;;3.27;;
7340;SDS011;6870;50.944;6.932;2023-02-01T11:20:13;6.00;;;3.33;;
7340;SDS011;6870;50.944;6.932;2023-02-01T11:22:47;7.23;;;3.10;;
7340;SDS011;6870;50.944;6.932;2023-02-01T11:25:20;5.40;;;3.37;;
7340;SDS011;6870;50.944;6.932;2023-02-01T11:27:50;6.63;;;3.70;;
7340;SDS011;6870;50.944;6.932;2023-02-01T11:30:25;4.70;;;2.80;;
7340;SDS011;6870;50.944;6.932;2023-02-01T11:32:59;4.37;;;3.20;;
7340;SDS011;6870;50.944;6.932;2023-02-01T11:35:31;5.70;;;3.20;;
7340;SDS011;6870;50.944;6.932;2023-02-01T11:38:09;5.20;;;3.60;;
7340;SDS011;6870;50.944;6.932;2023-02-01T11:40:43;5.80;;;3.10;;
7340;SDS011;6870;50.944;6.932;2023-02-01T11:43:13;3.77;;;2.60;;
7340;SDS011;6870;50.944;6.932;2023-02-01T11:45:54;4.17;;;2.70;;
7340;SDS011;6870;50.944;6.932;2023-02-01T11:48:25;4.23;;;3.30;;
7340;SDS011;6870;50.944;6.932;2023-02-01T11:50:59;5.90;;;3.23;;
7340;SDS011;6870;50.944;6.932;2023-02-01T11:53:41;5.00;;;3.20;;
7340;SDS011;6870;50.944;6.932;2023-02-01T11:56:28;4.70;;;2.90;;
7340;SDS011;6870;50.944;6.932;2023-02-01T11:59:12;5.80;;;3.00;;
7340;SDS011;6870;50.944;6.932;2023-02-01T12:02:03;5.10;;;3.17;;
7340;SDS011;6870;50.944;6.932;2023-02-01T12:05:03;5.57;;;3.00;;
7340;SDS011;6870;50.944;6.932;2023-02-01T12:07:50;5.10;;;3.00;;
7340;SDS011;6870;50.944;6.932;2023-02-01T12:10:34;3.67;;;3.03;;
7340;SDS011;6870;50.944;6.932;2023-02-01T12:13:18;5.73;;;3.50;;
7340;SDS011;6870;50.944;6.932;2023-02-01T12:16:08;4.67;;;2.87;;
7340;SDS011;6870;50.944;6.932;2023-02-01T12:19:00;5.10;;;3.40;;
7340;SDS011;6870;50.944;6.932;2023-02-01T12:21:53;5.60;;;3.03;;
7340;SDS011;6870;50.944;6.932;2023-02-01T12:24:33;5.80;;;3.53;;
7340;SDS011;6870;50.944;6.932;2023-02-01T12:27:45;5.30;;;3.80;;
7340;SDS011;6870;50.944;6.932;2023-02-01T12:30:35;5.80;;;3.57;;
7340;SDS011;6870;50.944;6.932;2023-02-01T12:33:34;7.00;;;3.23;;
7340;SDS011;6870;50.944;6.932;2023-02-01T12:36:18;3.50;;;2.37;;
7340;SDS011;6870;50.944;6.932;2023-02-01T12:38:57;4.47;;;3.40;;
7340;SDS011;6870;50.944;6.932;2023-02-01T12:41:41;5.70;;;2.67;;
7340;SDS011;6870;50.944;6.932;2023-02-01T12:44:32;4.40;;;2.90;;
7340;SDS011;6870;50.944;6.932;2023-02-01T12:47:11;3.43;;;2.50;;
7340;SDS011;6870;50.944;6.932;2023-02-01T12:49:47;4.37;;;3.10;;
7340;SDS011;6870;50.944;6.932;2023-02-01T12:52:25;4.57;;;3.40;;
7340;SDS011;6870;50.944;6.932;2023-02-01T12:55:03;5.73;;;2.37;;
7340;SDS011;6870;50.944;6.932;2023-02-01T12:57:50;3.67;;;2.93;;
7340;SDS011;6870;50.944;6.932;2023-02-01T13:00:23;3.73;;;2.67;;
7340;SDS011;6870;50.944;6.932;2023-02-01T13:03:00;4.97;;;3.10;;
7340;SDS011;6870;50.944;6.932;2023-02-01T13:05:42;6.10;;;3.03;;
7340;SDS011;6870;50.944;6.932;2023-02-01T13:08:20;6.13;;;2.90;;
7340;SDS011;6870;50.944;6.932;2023-02-01T13:10:53;5.90;;;3.63;;
7340;SDS011;6870;50.944;6.932;2023-02-01T13:13:28;4.20;;;2.93;;
7340;SDS011;6870;50.944;6.932;2023-02-01T13:16:06;7.33;;;3.20;;
7340;SDS011;6870;50.944;6.932;2023-02-01T13:18:45;4.60;;;3.10;;
7340;SDS011;6870;50.944;6.932;2023-02-01T13:21:18;7.50;;;3.17;;
7340;SDS011;6870;50.944;6.932;2023-02-01T13:23:53;7.13;;;2.80;;
7340;SDS011;6870;50.944;6.932;2023-02-01T13:26:21;5.50;;;2.95;;
7340;SDS011;6870;50.944;6.932;2023-02-01T13:28:50;6.47;;;2.60;;
7340;SDS011;6870;50.944;6.932;2023-02-01T13:31:28;3.20;;;2.50;;
7340;SDS011;6870;50.944;6.932;2023-02-01T13:34:38;4.80;;;2.87;;
7340;SDS011;6870;50.944;6.932;2023-02-01T13:37:34;4.97;;;3.83;;
7340;SDS011;6870;50.944;6.932;2023-02-01T13:40:31;3.90;;;2.57;;
7340;SDS011;6870;50.944;6.932;2023-02-01T13:43:06;5.27;;;2.80;;
7340;SDS011;6870;50.944;6.932;2023-02-01T13:45:45;5.20;;;3.33;;
7340;SDS011;6870;50.944;6.932;2023-02-01T13:48:19;7.67;;;3.23;;
7340;SDS011;6870;50.944;6.932;2023-02-01T13:50:52;3.80;;;2.07;;
7340;SDS011;6870;50.944;6.932;2023-02-01T13:53:25;3.50;;;2.60;;
7340;SDS011;6870;50.944;6.932;2023-02-01T13:56:01;3.43;;;2.47;;
7340;SDS011;6870;50.944;6.932;2023-02-01T13:58:33;3.10;;;2.13;;
7340;SDS011;6870;50.944;6.932;2023-02-01T14:04:06;3.33;;;2.47;;
7340;SDS011;6870;50.944;6.932;2023-02-01T14:07:18;4.40;;;3.30;;
7340;SDS011;6870;50.944;6.932;2023-02-01T14:09:49;5.00;;;2.90;;
7340;SDS011;6870;50.944;6.932;2023-02-01T14:15:17;4.23;;;3.03;;
7340;SDS011;6870;50.944;6.932;2023-02-01T14:17:54;10.73;;;4.90;;
7340;SDS011;6870;50.944;6.932;2023-02-01T14:23:22;9.67;;;6.53;;
7340;SDS011;6870;50.944;6.932;2023-02-01T14:26:07;16.70;;;7.77;;
7340;SDS011;6870;50.944;6.932;2023-02-01T14:28:42;15.27;;;9.20;;
7340;SDS011;6870;50.944;6.932;2023-02-01T14:31:15;13.83;;;9.40;;
7340;SDS011;6870;50.944;6.932;2023-02-01T14:34:02;16.73;;;10.73;;
7340;SDS011;6870;50.944;6.932;2023-02-01T14:36:40;17.37;;;12.00;;
7340;SDS011;6870;50.944;6.932;2023-02-01T14:42:14;18.57;;;11.30;;
7340;SDS011;6870;50.944;6.932;2023-02-01T14:44:53;22.43;;;13.60;;
7340;SDS011;6870;50.944;6.932;2023-02-01T14:47:26;20.53;;;12.53;;
7340;SDS011;6870;50.944;6.932;2023-02-01T14:50:10;19.67;;;13.00;;
7340;SDS011;6870;50.944;6.932;2023-02-01T14:52:47;18.50;;;11.13;;
7340;SDS011;6870;50.944;6.932;2023-02-01T14:55:27;15.73;;;14.10;;
7340;SDS011;6870;50.944;6.932;2023-02-01T14:58:01;20.77;;;13.00;;
7340;SDS011;6870;50.944;6.932;2023-02-01T15:00:34;18.33;;;12.80;;
7340;SDS011;6870;50.944;6.932;2023-02-01T15:03:15;20.67;;;13.17;;
7340;SDS011;6870;50.944;6.932;2023-02-01T15:06:13;21.05;;;14.93;;
7340;SDS011;6870;50.944;6.932;2023-02-01T15:08:52;21.27;;;14.10;;
7340;SDS011;6870;50.944;6.932;2023-02-01T15:11:24;20.20;;;13.60;;
7340;SDS011;6870;50.944;6.932;2023-02-01T15:13:53;24.50;;;13.00;;
7340;SDS011;6870;50.944;6.932;2023-02-01T15:16:24;20.50;;;12.97;;
7340;SDS011;6870;50.944;6.932;2023-02-01T15:19:09;17.70;;;11.97;;
7340;SDS011;6870;50.944;6.932;2023-02-01T15:21:42;22.83;;;12.30;;
7340;SDS011;6870;50.944;6.932;2023-02-01T15:24:13;21.97;;;11.80;;
7340;SDS011;6870;50.944;6.932;2023-02-01T15:26:42;17.10;;;13.03;;
7340;SDS011;6870;50.944;6.932;2023-02-01T15:29:11;19.27;;;11.07;;
7340;SDS011;6870;50.944;6.932;2023-02-01T15:31:42;19.03;;;11.63;;
7340;SDS011;6870;50.944;6.932;2023-02-01T15:34:13;19.17;;;10.87;;
7340;SDS011;6870;50.944;6.932;2023-02-01T15:36:42;15.50;;;10.47;;
7340;SDS011;6870;50.944;6.932;2023-02-01T15:39:27;14.93;;;11.30;;
7340;SDS011;6870;50.944;6.932;2023-02-01T15:41:59;15.03;;;10.33;;
7340;SDS011;6870;50.944;6.932;2023-02-01T15:44:37;14.33;;;9.60;;
7340;SDS011;6870;50.944;6.932;2023-02-01T15:47:13;14.73;;;10.83;;
7340;SDS011;6870;50.944;6.932;2023-02-01T15:49:44;15.77;;;10.53;;
7340;SDS011;6870;50.944;6.932;2023-02-01T15:52:22;14.23;;;9.83;;
7340;SDS011;6870;50.944;6.932;2023-02-01T15:54:56;16.97;;;10.67;;
7340;SDS011;6870;50.944;6.932;2023-02-01T15:57:28;14.57;;;9.87;;
7340;SDS011;6870;50.944;6.932;2023-02-01T16:00:00;19.60;;;9.83;;
7340;SDS011;6870;50.944;6.932;2023-02-01T16:02:35;14.53;;;9.27;;
7340;SDS011;6870;50.944;6.932;2023-02-01T16:05:25;19.10;;;9.37;;
7340;SDS011;6870;50.944;6.932;2023-02-01T16:08:03;17.93;;;9.87;;
7340;SDS011;6870;50.944;6.932;2023-02-01T16:10:38;22.60;;;8.93;;